Time;durP1;ratioP1;P1;durP2;ratioP2;P2;SDS_P1;SDS_P2;PMS_P1;PMS_P2;Temp;Humidity;BMP_temperature;BMP_pressure;BME280_temperature;BME280_humidity;BME280_pressure;Samples;Min_cycle;Max_cycle;Signal;HPM_P1;HPM_P2
2021/12/30 00:00:12;;;;;;;51.73;14.53;;;;;;;-2.31;100.00;101131.83;1691450;84;20898;-81
2021/12/30 00:02:38;;;;;;;48.05;13.00;;;;;;;-2.29;100.00;101132.50;1691438;84;21332;-81
2021/12/30 00:05:06;;;;;;;48.38;13.65;;;;;;;-2.26;100.00;101131.82;1690837;83;21719;-81
2021/12/30 00:07:32;;;;;;;43.42;13.13;;;;;;;-2.29;100.00;101132.50;1687953;84;21049;-81
2021/12/30 00:09:59;;;;;;;47.48;13.50;;;;;;;-2.32;100.00;101136.78;1691400;84;20940;-81
2021/12/30 00:12:25;;;;;;;45.63;12.93;;;;;;;-2.31;100.00;101140.24;1691563;84;21244;-81
2021/12/30 00:14:51;;;;;;;39.85;12.95;;;;;;;-2.32;100.00;101142.06;1691589;84;21839;-81
2021/12/30 00:17:17;;;;;;;44.20;13.20;;;;;;;-2.31;100.00;101141.06;1691477;84;20921;-81
2021/12/30 00:19:43;;;;;;;39.23;13.35;;;;;;;-2.27;100.00;101152.12;1745667;81;21075;-81
2021/12/30 00:22:09;;;;;;;41.85;12.43;;;;;;;-2.29;100.00;101145.70;1757190;81;21445;-81
2021/12/30 00:24:35;;;;;;;37.95;12.85;;;;;;;-2.26;100.00;101150.30;1757030;81;20997;-81
2021/12/30 00:27:02;;;;;;;41.35;12.95;;;;;;;-2.26;100.00;101154.25;1757278;81;21780;-81
2021/12/30 00:29:28;;;;;;;39.63;13.00;;;;;;;-2.27;100.00;101151.30;1757279;81;21024;-81
2021/12/30 00:31:53;;;;;;;34.38;12.10;;;;;;;-2.30;100.00;101154.58;1757298;81;20944;-81
2021/12/30 00:34:19;;;;;;;37.10;12.75;;;;;;;-2.28;100.00;101151.80;1723411;81;20881;-81
2021/12/30 00:36:46;;;;;;;42.80;13.53;;;;;;;-2.25;100.00;101146.69;1723140;81;20866;-81
2021/12/30 00:39:14;;;;;;;37.28;11.65;;;;;;;-2.23;100.00;101155.28;1757205;81;21858;-81
2021/12/30 00:41:41;;;;;;;46.08;13.18;;;;;;;-2.26;100.00;101158.22;1756912;81;21001;-81
2021/12/30 00:44:07;;;;;;;42.13;13.90;;;;;;;-2.26;100.00;101161.70;1757373;81;21432;-81
2021/12/30 00:46:32;;;;;;;42.73;13.72;;;;;;;-2.26;100.00;101156.89;1757138;81;21641;-81
2021/12/30 00:48:58;;;;;;;39.03;13.30;;;;;;;-2.25;100.00;101158.57;1757267;81;20885;-81
2021/12/30 00:51:24;;;;;;;43.08;13.70;;;;;;;-2.25;100.00;101155.93;1757293;81;21159;-81
2021/12/30 00:53:50;;;;;;;43.10;14.30;;;;;;;-2.26;100.00;101156.43;1757285;81;21015;-81
2021/12/30 00:56:17;;;;;;;38.75;13.53;;;;;;;-2.27;100.00;101160.03;1756236;81;20909;-81
2021/12/30 00:58:43;;;;;;;42.85;13.78;;;;;;;-2.29;100.00;101157.58;1754489;80;21001;-81
2021/12/30 01:01:09;;;;;;;41.35;13.58;;;;;;;-2.31;100.00;101151.63;1754815;80;20902;-81
2021/12/30 01:03:35;;;;;;;45.80;13.45;;;;;;;-2.32;100.00;101149.16;1754800;80;21969;-80
2021/12/30 01:06:03;;;;;;;46.10;14.07;;;;;;;-2.32;100.00;101149.16;1754550;80;20889;-81
2021/12/30 01:08:29;;;;;;;47.00;15.08;;;;;;;-2.34;100.00;101148.48;1754833;80;21027;-80
2021/12/30 01:10:56;;;;;;;42.13;13.03;;;;;;;-2.36;100.00;101153.09;1754798;80;21036;-81
2021/12/30 01:13:25;;;;;;;45.38;14.13;;;;;;;-2.35;100.00;101156.91;1731321;80;21553;-81
2021/12/30 01:16:00;;;;;;;42.03;14.15;;;;;;;-2.35;100.00;101156.91;1754034;80;21682;-81
2021/12/30 01:18:38;;;;;;;45.45;13.32;;;;;;;-2.37;100.00;101160.69;1754188;80;21036;-81
2021/12/30 01:20:59;;;;;;;43.28;14.13;;;;;;;-2.36;100.00;101163.15;1751153;80;21048;-81
2021/12/30 01:23:26;;;;;;;44.25;14.03;;;;;;;-2.36;100.00;101167.11;1754421;80;21432;-81
2021/12/30 01:25:55;;;;;;;44.73;14.47;;;;;;;-2.30;100.00;101174.88;1754805;80;21486;-81
2021/12/30 01:28:21;;;;;;;46.77;14.33;;;;;;;-2.33;100.00;101168.60;1753922;80;21020;-81
2021/12/30 01:30:48;;;;;;;46.18;14.28;;;;;;;-2.33;100.00;101168.60;1754396;80;21052;-81
2021/12/30 01:33:15;;;;;;;46.55;14.05;;;;;;;-2.34;100.00;101170.92;1754434;80;21075;-81
2021/12/30 01:35:41;;;;;;;47.98;14.65;;;;;;;-2.31;100.00;101167.45;1754395;80;21055;-81
2021/12/30 01:38:12;;;;;;;46.53;13.88;;;;;;;-2.31;100.00;101165.31;1754843;80;21068;-81
2021/12/30 01:40:36;;;;;;;47.13;15.45;;;;;;;-2.29;100.00;101164.67;1750959;80;21502;-81
2021/12/30 01:43:02;;;;;;;52.98;15.05;;;;;;;-2.26;100.00;101157.75;1754757;80;21008;-81
2021/12/30 01:45:28;;;;;;;49.10;16.32;;;;;;;-2.29;100.00;101162.85;1754533;80;21103;-81
2021/12/30 01:47:55;;;;;;;55.17;15.93;;;;;;;-2.27;100.00;101163.17;1724317;81;21005;-81
2021/12/30 06:12:59;;;;;;;52.60;16.80;;;;;;;-2.38;100.00;101341.97;1740503;76;21128;-91
2021/12/30 06:15:25;;;;;;;54.18;17.40;;;;;;;-2.34;100.00;101343.30;1708439;82;21011;-86
2021/12/30 06:17:51;;;;;;;54.23;17.12;;;;;;;-2.31;100.00;101350.90;1708048;83;20888;-85
2021/12/30 06:20:17;;;;;;;59.42;17.77;;;;;;;-2.27;100.00;101357.19;1708412;84;20853;-87
2021/12/30 06:22:44;;;;;;;53.45;16.82;;;;;;;-2.22;100.00;101358.38;1708129;83;21416;-86
2021/12/30 06:25:12;;;;;;;52.50;17.37;;;;;;;-2.19;100.00;101348.81;1659184;84;21001;-88
2021/12/30 06:27:38;;;;;;;54.03;17.32;;;;;;;-2.16;100.00;101354.28;1708054;83;21067;-88
2021/12/30 06:30:07;;;;;;;58.15;17.42;;;;;;;-2.14;100.00;101354.46;1708245;83;21608;-88
2021/12/30 06:32:33;;;;;;;49.80;16.90;;;;;;;-2.12;100.00;101351.18;1708321;83;21125;-88
2021/12/30 06:34:59;;;;;;;58.15;19.23;;;;;;;-2.11;100.00;101359.42;1708359;83;21033;-89
2021/12/30 06:37:25;;;;;;;59.63;18.05;;;;;;;-2.06;100.00;101358.93;1708159;83;21055;-89
2021/12/30 06:39:51;;;;;;;57.30;18.30;;;;;;;-2.02;100.00;101360.79;1708189;83;21577;-88
2021/12/30 06:42:17;;;;;;;53.10;18.37;;;;;;;-1.97;100.00;101358.01;1708438;83;20884;-89
2021/12/30 06:44:43;;;;;;;61.10;18.75;;;;;;;-1.89;100.00;101354.55;1708159;83;21046;-88
2021/12/30 06:47:09;;;;;;;60.05;18.42;;;;;;;-1.84;100.00;101354.41;1708204;83;20940;-88
2021/12/30 06:49:37;;;;;;;67.55;19.17;;;;;;;-1.81;100.00;101360.38;1707916;83;21042;-88
2021/12/30 06:52:06;;;;;;;59.08;17.00;;;;;;;-1.75;100.00;101361.05;1707812;83;20999;-88
2021/12/30 06:54:32;;;;;;;61.75;19.30;;;;;;;-1.66;100.00;101365.37;1707994;83;21075;-89
2021/12/30 06:57:00;;;;;;;64.35;19.00;;;;;;;-1.59;100.00;101363.73;1711853;83;21012;-88
2021/12/30 06:59:27;;;;;;;68.12;19.17;;;;;;;-1.57;100.00;101360.94;1709652;82;21106;-88
2021/12/30 07:01:57;;;;;;;60.15;18.92;;;;;;;-1.54;100.00;101365.41;1720599;82;21038;-89
2021/12/30 07:04:22;;;;;;;58.73;18.50;;;;;;;-1.47;100.00;101373.04;1709160;82;21007;-89
2021/12/30 07:06:49;;;;;;;61.55;18.57;;;;;;;-1.40;100.00;101373.21;1722660;82;21444;-88
2021/12/30 07:09:15;;;;;;;63.75;18.85;;;;;;;-1.37;100.00;101372.38;1700055;83;21002;-89
2021/12/30 07:11:41;;;;;;;66.07;20.00;;;;;;;-1.33;100.00;101377.34;1713583;83;21139;-88
2021/12/30 07:14:09;;;;;;;62.50;19.12;;;;;;;-1.27;100.00;101384.12;1709534;83;21728;-88
2021/12/30 07:16:35;;;;;;;58.15;19.20;;;;;;;-1.22;100.00;101385.80;1696229;82;21042;-90
2021/12/30 07:19:01;;;;;;;61.25;18.92;;;;;;;-1.16;100.00;101393.58;1716147;82;21087;-88
2021/12/30 07:21:28;;;;;;;64.65;19.35;;;;;;;-1.14;100.00;101392.92;1709829;83;21026;-89
2021/12/30 07:23:54;;;;;;;61.53;19.37;;;;;;;-1.07;100.00;101396.56;1710730;83;21219;-89
2021/12/30 07:26:20;;;;;;;58.60;19.20;;;;;;;-1.00;100.00;101400.22;1711859;82;21034;-89
2021/12/30 07:28:47;;;;;;;61.55;19.27;;;;;;;-0.93;100.00;101401.70;1694462;83;20920;-89
2021/12/30 07:31:14;;;;;;;63.92;20.25;;;;;;;-0.90;100.00;101397.41;1711164;83;21035;-90
2021/12/30 07:33:41;;;;;;;62.20;19.67;;;;;;;-0.87;100.00;101405.02;1711407;82;21122;-90
2021/12/30 07:36:08;;;;;;;60.55;19.05;;;;;;;-0.81;100.00;101402.21;1710435;82;21125;-89
2021/12/30 07:38:34;;;;;;;70.22;20.62;;;;;;;-0.76;100.00;101409.98;1709891;83;21066;-90
2021/12/30 07:41:00;;;;;;;77.60;21.40;;;;;;;-0.70;100.00;101409.83;1711395;82;21035;-90
2021/12/30 07:43:27;;;;;;;85.25;22.85;;;;;;;-0.65;100.00;101398.22;1717716;82;21030;-89
2021/12/30 07:45:53;;;;;;;84.50;24.05;;;;;;;-0.57;100.00;101400.88;1723232;83;21034;-89
2021/12/30 07:48:19;;;;;;;84.15;24.23;;;;;;;-0.49;100.00;101396.90;1726384;82;21161;-89
2021/12/30 07:50:45;;;;;;;89.35;26.93;;;;;;;-0.37;100.00;101399.20;1726389;82;20958;-88
2021/12/30 07:53:11;;;;;;;83.60;26.17;;;;;;;-0.33;100.00;101406.63;1726303;82;20880;-88
2021/12/30 07:55:37;;;;;;;91.10;27.30;;;;;;;-0.27;100.00;101407.78;1726292;82;21043;-88
2021/12/30 07:58:03;;;;;;;103.05;30.50;;;;;;;-0.14;100.00;101413.91;1726822;82;20995;-88
2021/12/30 08:00:29;;;;;;;108.97;31.55;;;;;;;-0.10;100.00;101413.88;1726251;82;21259;-88
2021/12/30 08:02:55;;;;;;;114.03;32.13;;;;;;;-0.06;100.00;101416.50;1710145;83;20992;-87
2021/12/30 08:05:23;;;;;;;107.92;30.85;;;;;;;-0.09;100.00;101412.87;1710403;82;20908;-86
2021/12/30 08:07:49;;;;;;;111.37;32.13;;;;;;;-0.10;100.00;101414.70;1710527;82;21051;-85
2021/12/30 08:10:18;;;;;;;98.82;30.85;;;;;;;-0.15;100.00;101421.50;1710634;83;21039;-88
2021/12/30 08:12:46;;;;;;;114.25;33.23;;;;;;;-0.13;100.00;101418.20;1710689;83;21031;-89
2021/12/30 08:15:13;;;;;;;109.63;32.30;;;;;;;-0.11;100.00;101409.09;1689396;82;21009;-86
2021/12/30 08:17:42;;;;;;;115.32;33.55;;;;;;;-0.09;100.00;101410.22;1678055;85;21069;-86
2021/12/30 08:20:10;;;;;;;111.97;33.20;;;;;;;-0.07;100.00;101413.54;1678130;85;21041;-86
2021/12/30 08:22:36;;;;;;;106.52;31.97;;;;;;;-0.01;100.00;101414.19;1679925;84;21616;-86
2021/12/30 08:25:06;;;;;;;107.78;31.40;;;;;;;0.02;100.00;101406.40;1680759;84;21022;-86
2021/12/30 08:27:35;;;;;;;97.62;30.20;;;;;;;0.07;100.00;101411.52;1675911;84;21111;-87
2021/12/30 08:30:04;;;;;;;92.02;28.25;;;;;;;0.11;100.00;101410.67;1655379;84;21071;-88
2021/12/30 08:32:30;;;;;;;100.90;29.65;;;;;;;0.15;100.00;101413.33;1674789;84;21043;-87
2021/12/30 08:34:56;;;;;;;87.10;27.48;;;;;;;0.16;100.00;101411.00;1691733;83;20907;-88
2021/12/30 08:37:23;;;;;;;92.60;29.05;;;;;;;0.15;100.00;101413.33;1691778;83;21078;-87
2021/12/30 08:39:54;;;;;;;95.38;29.52;;;;;;;0.08;100.00;101418.45;1680413;85;21076;-88
2021/12/30 08:42:26;;;;;;;95.50;29.20;;;;;;;0.04;100.00;101424.28;1679932;84;20989;-88
2021/12/30 08:44:56;;;;;;;71.55;21.62;;;;;;;0.03;100.00;101424.79;1679169;85;21570;-88
2021/12/30 08:47:22;;;;;;;86.35;28.50;;;;;;;0.12;100.00;101428.22;1680409;84;21403;-88
2021/12/30 08:49:49;;;;;;;82.17;25.60;;;;;;;0.18;100.00;101428.38;1675389;84;21134;-88
2021/12/30 08:52:18;;;;;;;85.80;26.37;;;;;;;0.25;100.00;101431.16;1674771;85;21043;-88
2021/12/30 08:54:47;;;;;;;86.10;24.92;;;;;;;0.25;100.00;101427.19;1676304;84;21546;-88
2021/12/30 08:57:14;;;;;;;76.53;24.72;;;;;;;0.31;100.00;101427.01;1677591;85;21094;-88
2021/12/30 08:59:40;;;;;;;69.35;23.00;;;;;;;0.42;100.00;101419.50;1678298;85;21554;-88
2021/12/30 09:02:08;;;;;;;65.08;22.80;;;;;;;0.49;100.00;101414.33;1676702;85;21065;-89
2021/12/30 09:04:35;;;;;;;66.07;20.57;;;;;;;0.48;100.00;101413.19;1674382;84;20996;-87
2021/12/30 09:07:02;;;;;;;62.80;19.57;;;;;;;0.59;100.00;101414.10;1679927;84;21069;-88
2021/12/30 09:09:28;;;;;;;54.95;18.12;;;;;;;0.67;100.00;101416.72;1684519;85;21011;-88
2021/12/30 09:11:56;;;;;;;55.10;17.65;;;;;;;0.74;100.00;101422.17;1680687;84;21062;-89
2021/12/30 09:14:22;;;;;;;50.00;16.15;;;;;;;0.82;100.00;101420.78;1656473;85;21165;-88
2021/12/30 09:16:49;;;;;;;48.05;15.90;;;;;;;0.79;100.00;101423.27;1688539;85;21101;-89
2021/12/30 09:19:16;;;;;;;43.02;15.80;;;;;;;0.88;100.00;101434.19;1688456;83;21027;-89
2021/12/30 09:21:43;;;;;;;48.00;15.68;;;;;;;0.98;100.00;101431.81;1688619;83;21004;-91
2021/12/30 09:24:10;;;;;;;48.65;16.67;;;;;;;1.03;100.00;101422.80;1679439;82;21090;-93
2021/12/30 09:26:38;;;;;;;46.53;15.25;;;;;;;1.13;100.00;101422.08;1663697;83;21098;-91
2021/12/30 09:29:10;;;;;;;44.55;14.65;;;;;;;1.18;100.00;101422.38;1718535;83;21028;-91
2021/12/30 09:31:34;;;;;;;46.00;15.00;;;;;;;1.19;100.00;101422.70;1708201;82;21068;-92
2021/12/30 09:34:00;;;;;;;43.10;14.38;;;;;;;1.28;100.00;101415.49;1705874;83;21012;-92
2021/12/30 09:36:28;;;;;;;46.73;15.55;;;;;;;1.36;100.00;101416.25;1705774;83;21048;-91
2021/12/30 09:38:53;;;;;;;42.95;15.55;;;;;;;1.24;100.00;101413.70;1705866;84;21557;-91
2021/12/30 09:41:19;;;;;;;45.75;14.43;;;;;;;1.26;100.00;101413.00;1683627;84;20905;-92
2021/12/30 09:43:45;;;;;;;42.13;14.87;;;;;;;1.25;100.00;101415.84;1705857;84;20980;-92
2021/12/30 09:46:12;;;;;;;45.90;14.75;;;;;;;1.12;100.00;101411.97;1704707;83;21042;-93
2021/12/30 09:48:38;;;;;;;44.45;14.60;;;;;;;1.08;100.00;101412.48;1702402;83;21070;-92
2021/12/30 09:51:07;;;;;;;40.15;13.80;;;;;;;1.11;100.00;101413.45;1692109;83;21190;-92
2021/12/30 09:53:33;;;;;;;45.48;14.75;;;;;;;1.18;100.00;101406.45;1688156;83;21004;-91
2021/12/30 09:55:59;;;;;;;42.10;13.90;;;;;;;1.26;100.00;101406.36;1688224;83;21051;-92
2021/12/30 09:58:27;;;;;;;44.95;15.08;;;;;;;1.27;100.00;101405.89;1698857;82;21314;-90
2021/12/30 10:00:55;;;;;;;47.45;16.20;;;;;;;1.24;100.00;101408.39;1705162;82;21072;-94
2021/12/30 10:03:21;;;;;;;40.70;14.25;;;;;;;1.22;100.00;101409.06;1705705;84;21507;-90
2021/12/30 10:05:47;;;;;;;64.30;21.00;;;;;;;1.23;100.00;101415.19;1706070;83;21063;-90
2021/12/30 10:08:24;;;;;;;61.30;19.60;;;;;;;1.25;100.00;101418.50;1706079;83;21060;-91
2021/12/30 10:10:57;;;;;;;46.70;14.65;;;;;;;1.25;100.00;101416.67;1705562;84;21059;-90
2021/12/30 10:13:29;;;;;;;42.70;14.20;;;;;;;1.28;100.00;101422.95;1605649;87;21492;-90
2021/12/30 10:16:03;;;;;;;42.95;13.78;;;;;;;1.29;100.00;101418.46;1579920;88;21162;-91
2021/12/30 10:18:52;;;;;;;42.40;14.23;;;;;;;1.20;100.00;101422.19;1577217;89;21107;-90
2021/12/30 10:21:35;;;;;;;45.00;14.25;;;;;;;1.13;100.00;101419.42;1555010;91;21306;-91
2021/12/30 10:24:05;;;;;;;49.75;16.70;;;;;;;1.09;100.00;101418.14;1555209;90;21161;-91
2021/12/30 10:26:58;;;;;;;47.23;15.05;;;;;;;1.15;100.00;101417.42;1570323;91;21477;-93
2021/12/30 10:29:27;;;;;;;42.90;14.10;;;;;;;1.13;100.00;101416.26;1557979;91;22022;-94
2021/12/30 10:31:54;;;;;;;44.83;14.50;;;;;;;1.15;100.00;101413.45;1566103;91;20977;-93
2021/12/30 10:34:20;;;;;;;44.63;14.73;;;;;;;1.15;100.00;101416.09;1566471;90;21585;-90
2021/12/30 10:36:50;;;;;;;44.90;14.68;;;;;;;1.19;100.00;101412.08;1566410;91;21135;-93
2021/12/30 10:39:24;;;;;;;44.77;15.10;;;;;;;1.17;100.00;101401.31;1566618;91;21637;-92
2021/12/30 10:42:19;;;;;;;45.12;15.15;;;;;;;1.24;100.00;101398.28;1566556;90;21198;-91
2021/12/30 10:44:52;;;;;;;;;;;;;;;1.28;100.00;101400.89;1568412;91;21170;-91
2021/12/30 10:47:19;;;;;;;51.02;15.28;;;;;;;1.33;100.00;101397.20;1566702;91;20196;-91
2021/12/30 10:50:07;;;;;;;53.23;16.17;;;;;;;1.33;100.00;101403.84;1566407;91;21660;-91
2021/12/30 10:52:34;;;;;;;54.70;17.35;;;;;;;1.23;100.00;101401.92;1566235;91;21122;-91
2021/12/30 10:55:09;;;;;;;51.13;17.17;;;;;;;1.21;100.00;101398.12;1566846;90;21073;-94
2021/12/30 10:57:35;;;;;;;53.05;17.65;;;;;;;1.18;100.00;101406.92;1498458;95;21175;-91
2021/12/30 11:00:03;;;;;;;55.23;16.48;;;;;;;1.09;100.00;101402.22;1498608;95;21128;-90
2021/12/30 11:02:29;;;;;;;56.37;17.57;;;;;;;1.04;100.00;101398.75;1498594;95;21216;-91
2021/12/30 11:05:02;;;;;;;60.35;18.17;;;;;;;1.07;100.00;101402.38;1498668;95;21858;-92
2021/12/30 11:07:51;;;;;;;49.23;16.30;;;;;;;1.16;100.00;101402.32;1488018;95;21106;-91
2021/12/30 11:10:34;;;;;;;55.38;16.55;;;;;;;1.26;100.00;101401.05;1518671;93;22283;-91
2021/12/30 11:13:12;;;;;;;52.75;16.67;;;;;;;1.37;100.00;101402.47;1555700;91;21692;-92
2021/12/30 11:15:39;;;;;;;56.48;16.42;;;;;;;1.29;100.00;101399.87;1562825;90;21122;-91
2021/12/30 11:18:18;;;;;;;60.73;18.00;;;;;;;1.28;100.00;101405.69;1561050;91;21110;-91
2021/12/30 11:20:48;;;;;;;50.85;16.35;;;;;;;1.26;100.00;101402.89;1559639;91;22857;-92
2021/12/30 11:23:16;;;;;;;55.88;16.93;;;;;;;1.30;100.00;101405.53;1527749;92;21172;-92
2021/12/30 11:25:43;;;;;;;55.90;17.30;;;;;;;1.32;100.00;101403.02;1561082;90;21109;-92
2021/12/30 11:28:10;;;;;;;56.45;16.93;;;;;;;1.43;100.00;101402.26;1564356;90;21048;-90
2021/12/30 11:30:36;;;;;;;46.58;16.67;;;;;;;1.46;100.00;101401.39;1564367;90;21529;-91
2021/12/30 11:33:03;;;;;;;54.03;17.25;;;;;;;1.44;100.00;101403.90;1564554;90;21146;-91
2021/12/30 11:35:29;;;;;;;50.92;16.62;;;;;;;1.37;100.00;101401.14;1611717;86;21093;-92
2021/12/30 11:37:56;;;;;;;55.45;17.00;;;;;;;1.40;100.00;101407.42;1634289;86;21150;-91
2021/12/30 11:40:26;;;;;;;56.92;16.73;;;;;;;1.42;100.00;101417.88;1630796;86;21531;-92
2021/12/30 11:43:00;;;;;;;52.40;16.10;;;;;;;1.36;100.00;101415.44;1634221;86;21126;-92
2021/12/30 11:45:32;;;;;;;52.15;17.02;;;;;;;1.29;100.00;101420.61;1630943;86;21123;-92
2021/12/30 11:48:06;;;;;;;53.08;16.37;;;;;;;1.21;100.00;101419.87;1634181;86;21043;-91
2021/12/30 11:50:37;;;;;;;53.45;16.48;;;;;;;1.21;100.00;101420.70;1600733;89;21159;-91
2021/12/30 11:53:11;;;;;;;59.55;17.17;;;;;;;1.17;100.00;101424.69;1600379;89;21085;-92
2021/12/30 11:55:59;;;;;;;54.38;17.00;;;;;;;1.06;100.00;101429.08;1600841;89;21101;-93
2021/12/30 11:58:44;;;;;;;58.23;16.35;;;;;;;1.08;100.00;101425.25;1582570;90;21201;-93
2021/12/30 12:01:21;;;;;;;58.48;17.73;;;;;;;1.15;100.00;101426.72;1581936;89;21143;-92
2021/12/30 12:03:58;;;;;;;60.98;17.85;;;;;;;1.06;100.00;101425.09;1582340;89;21265;-92
2021/12/30 12:06:35;;;;;;;56.53;17.15;;;;;;;0.99;100.00;101424.16;1582289;90;21555;-91
2021/12/30 12:09:27;;;;;;;64.58;19.65;;;;;;;0.94;100.00;101418.55;1582276;90;21087;-92
2021/12/30 12:11:59;;;;;;;64.25;18.75;;;;;;;0.88;100.00;101420.08;1582301;89;21563;-90
2021/12/30 12:14:29;;;;;;;58.87;17.37;;;;;;;0.90;100.00;101422.06;1582685;90;21622;-91
2021/12/30 12:17:00;;;;;;;65.75;19.67;;;;;;;0.96;100.00;101420.53;1503156;94;21029;-91
2021/12/30 12:19:48;;;;;;;63.73;18.55;;;;;;;0.95;100.00;101423.70;1532553;90;21142;-91
2021/12/30 12:22:25;;;;;;;63.63;19.80;;;;;;;0.92;100.00;101424.05;1551302;92;21032;-91
2021/12/30 12:25:14;;;;;;;60.33;18.52;;;;;;;0.78;100.00;101422.96;1551587;92;21124;-91
2021/12/30 12:27:47;;;;;;;63.90;18.27;;;;;;;0.71;100.00;101424.67;1536134;92;21126;-91
2021/12/30 12:30:34;;;;;;;63.08;17.52;;;;;;;0.70;100.00;101419.02;1509955;94;21089;-91
2021/12/30 12:33:14;;;;;;;59.65;18.20;;;;;;;0.71;100.00;101426.00;1510345;95;21143;-91
2021/12/30 12:35:41;;;;;;;61.95;19.40;;;;;;;0.67;100.00;101429.48;1468049;97;21191;-91
2021/12/30 12:38:09;;;;;;;68.90;20.02;;;;;;;0.62;100.00;101430.52;1465525;97;21143;-90
2021/12/30 12:40:41;;;;;;;62.60;18.70;;;;;;;0.62;100.00;101433.17;1465109;97;21170;-90
2021/12/30 12:43:12;;;;;;;56.20;17.48;;;;;;;0.61;100.00;101432.00;1465749;97;21635;-91
2021/12/30 12:45:52;;;;;;;66.10;19.23;;;;;;;0.58;100.00;101436.33;1477079;95;21625;-91
2021/12/30 12:48:23;;;;;;;61.77;18.73;;;;;;;0.52;100.00;101441.83;1477375;97;21227;-91
2021/12/30 12:51:22;;;;;;;66.22;18.70;;;;;;;0.44;100.00;101445.83;1477117;97;21578;-91
2021/12/30 12:54:03;;;;;;;58.95;17.70;;;;;;;0.41;100.00;101448.82;1474807;97;21341;-92
2021/12/30 12:56:39;;;;;;;65.52;19.42;;;;;;;0.39;100.00;101453.49;1422106;100;21100;-91
2021/12/30 12:59:14;;;;;;;66.45;18.98;;;;;;;0.34;100.00;101451.34;1422612;100;21918;-90
2021/12/30 13:01:46;;;;;;;58.33;18.40;;;;;;;0.31;100.00;101456.16;1422237;100;21182;-91
2021/12/30 13:04:13;;;;;;;60.48;18.17;;;;;;;0.19;100.00;101463.15;1422590;100;21869;-92
2021/12/30 13:06:44;;;;;;;57.93;18.35;;;;;;;0.14;100.00;101459.36;1422366;100;21093;-92
2021/12/30 13:09:19;;;;;;;64.35;20.68;;;;;;;0.11;100.00;101465.00;1381260;103;21197;-91
2021/12/30 13:11:50;;;;;;;63.98;19.10;;;;;;;0.09;100.00;101469.16;1382708;103;21020;-92
2021/12/30 13:14:29;;;;;;;71.02;20.40;;;;;;;0.02;100.00;101469.98;1432258;98;21222;-91
2021/12/30 13:17:05;;;;;;;66.17;19.20;;;;;;;-0.07;100.00;101466.02;1469138;96;21174;-91
2021/12/30 13:19:43;;;;;;;62.48;19.73;;;;;;;-0.09;100.00;101467.18;1473106;97;21169;-92
2021/12/30 13:22:23;;;;;;;63.35;19.35;;;;;;;-0.16;100.00;101472.33;1475140;97;21120;-93
2021/12/30 13:24:54;;;;;;;62.45;19.40;;;;;;;-0.21;100.00;101480.45;1464640;97;21596;-92
2021/12/30 13:27:37;;;;;;;68.72;19.60;;;;;;;-0.32;100.00;101481.13;1452197;97;21766;-90
2021/12/30 13:30:08;;;;;;;68.00;18.48;;;;;;;-0.38;100.00;101488.88;1429119;99;21173;-89
2021/12/30 13:32:40;;;;;;;63.95;18.75;;;;;;;-0.47;100.00;101487.59;1450250;97;21187;-88
2021/12/30 13:35:22;;;;;;;61.10;19.27;;;;;;;-0.59;100.00;101490.23;1424880;97;21178;-90
2021/12/30 13:37:57;;;;;;;64.27;20.30;;;;;;;-0.69;100.00;101490.86;1452167;97;21346;-91
2021/12/30 13:40:37;;;;;;;64.70;20.80;;;;;;;-0.71;100.00;101494.16;1426887;100;21690;-90
2021/12/30 13:43:18;;;;;;;66.85;20.02;;;;;;;-0.77;100.00;101488.20;1435117;98;21151;-91
2021/12/30 13:45:54;;;;;;;77.82;22.15;;;;;;;-0.84;100.00;101485.38;1424957;99;21596;-92
2021/12/30 13:48:30;;;;;;;83.70;22.40;;;;;;;-0.91;100.00;101487.04;1412101;101;21668;-93
2021/12/30 13:51:04;;;;;;;71.50;22.07;;;;;;;-0.96;100.00;101484.86;1409236;101;21261;-92
2021/12/30 13:53:35;;;;;;;67.92;21.45;;;;;;;-0.96;100.00;101478.75;1418064;100;21205;-91
2021/12/30 13:56:09;;;;;;;70.75;22.75;;;;;;;-0.94;100.00;101476.28;1421962;100;21335;-91
2021/12/30 13:58:40;;;;;;;74.42;20.70;;;;;;;-0.93;100.00;101476.60;1416633;100;21184;-91
2021/12/30 14:01:17;;;;;;;74.17;23.18;;;;;;;-0.92;100.00;101483.54;1425498;100;21173;-93
2021/12/30 14:03:53;;;;;;;72.22;22.37;;;;;;;-0.96;100.00;101485.37;1421943;100;21778;-92
2021/12/30 14:06:25;;;;;;;68.25;21.45;;;;;;;-1.02;100.00;101490.80;1439797;98;21195;-93
2021/12/30 14:09:02;;;;;;;67.80;20.90;;;;;;;-0.99;100.00;101481.72;1451057;98;21166;-91
2021/12/30 14:11:41;;;;;;;75.40;23.00;;;;;;;-1.00;100.00;101487.52;1448936;99;21796;-92
2021/12/30 14:14:15;;;;;;;74.00;22.93;;;;;;;-0.97;100.00;101479.72;1448967;99;21030;-93
2021/12/30 14:16:47;;;;;;;71.80;21.77;;;;;;;-0.97;100.00;101483.22;1446715;99;21112;-94
2021/12/30 14:19:14;;;;;;;78.78;23.60;;;;;;;-0.98;100.00;101480.22;1445975;99;21176;-93
2021/12/30 14:21:44;;;;;;;70.08;22.02;;;;;;;-1.03;100.00;101483.88;1483388;96;21742;-92
2021/12/30 14:24:20;;;;;;;78.00;23.67;;;;;;;-1.05;100.00;101483.70;1482389;96;21216;-92
2021/12/30 14:26:50;;;;;;;77.05;24.10;;;;;;;-1.08;100.00;101487.98;1476351;96;21084;-93
2021/12/30 14:29:23;;;;;;;72.08;22.93;;;;;;;-1.14;100.00;101493.42;1464448;98;21099;-93
2021/12/30 14:31:58;;;;;;;74.60;23.55;;;;;;;-1.21;100.00;101488.42;1464326;98;21016;-92
2021/12/30 14:34:38;;;;;;;75.85;23.47;;;;;;;-1.24;100.00;101490.06;1466806;96;21131;-93
2021/12/30 14:37:25;;;;;;;87.62;24.75;;;;;;;-1.24;100.00;101480.81;1484757;94;21112;-93
2021/12/30 14:39:57;;;;;;;77.67;23.67;;;;;;;-1.29;100.00;101483.12;1532235;92;21115;-92
2021/12/30 14:42:33;;;;;;;70.42;22.22;;;;;;;-1.31;100.00;101487.23;1600013;88;21109;-92
2021/12/30 14:47:57;;;;;;;76.37;23.22;;;;;;;-1.32;100.00;101495.31;1609126;89;21167;-92
2021/12/30 14:50:27;;;;;;;73.60;25.08;;;;;;;-1.29;100.00;101496.34;1533082;93;21160;-92
2021/12/30 14:53:02;;;;;;;77.37;23.32;;;;;;;-1.29;100.00;101487.09;1533318;93;21114;-93
2021/12/30 14:55:35;;;;;;;82.82;24.70;;;;;;;-1.30;100.00;101490.20;1509647;94;21135;-92
2021/12/30 14:58:05;;;;;;;73.75;23.18;;;;;;;-1.27;100.00;101495.17;1484371;96;22291;-92
2021/12/30 15:00:37;;;;;;;79.07;24.40;;;;;;;-1.26;100.00;101498.67;1484563;95;21855;-92
2021/12/30 15:03:03;;;;;;;80.03;24.82;;;;;;;-1.32;100.00;101504.57;1484426;96;21171;-91
2021/12/30 15:05:30;;;;;;;79.03;24.15;;;;;;;-1.34;100.00;101511.36;1484313;96;21494;-91
2021/12/30 15:07:56;;;;;;;78.05;24.92;;;;;;;-1.34;100.00;101517.96;1484484;96;21144;-93
2021/12/30 15:10:24;;;;;;;72.60;22.80;;;;;;;-1.39;100.00;101510.50;1484126;96;20998;-92
2021/12/30 15:12:54;;;;;;;80.42;24.20;;;;;;;-1.41;100.00;101505.88;1484158;96;21973;-93
2021/12/30 15:15:23;;;;;;;75.50;24.25;;;;;;;-1.38;100.00;101510.03;1484374;96;21064;-93
2021/12/30 15:17:52;;;;;;;85.75;24.77;;;;;;;-1.39;100.00;101504.38;1471158;96;21152;-92
2021/12/30 15:20:20;;;;;;;85.90;25.55;;;;;;;-1.38;100.00;101498.95;1470723;97;21144;-92
2021/12/30 15:22:47;;;;;;;80.05;25.12;;;;;;;-1.38;100.00;101498.13;1478177;95;21089;-93
2021/12/30 15:25:14;;;;;;;75.52;25.10;;;;;;;-1.35;100.00;101487.23;1478896;94;21290;-92
2021/12/30 15:27:41;;;;;;;83.80;24.47;;;;;;;-1.37;100.00;101486.06;1488780;94;21200;-92
2021/12/30 15:30:11;;;;;;;91.97;26.50;;;;;;;-1.34;100.00;101500.78;1509765;93;21821;-92
2021/12/30 15:32:37;;;;;;;75.17;25.08;;;;;;;-1.33;100.00;101500.28;1513179;93;21070;-92
2021/12/30 15:35:05;;;;;;;75.50;25.10;;;;;;;-1.33;100.00;101489.20;1510024;93;37927;-91
2021/12/30 15:37:31;;;;;;;88.82;28.45;;;;;;;-1.28;100.00;101491.39;1512688;93;21153;-91
2021/12/30 15:39:58;;;;;;;86.87;26.75;;;;;;;-1.24;100.00;101492.71;1512556;93;21102;-92
2021/12/30 15:42:24;;;;;;;83.58;26.85;;;;;;;-1.24;100.00;101486.09;1512866;93;21093;-91